Shenzhen Bao'an International Airport

Airport
ICAO code: 
ZGSZ
IATA Code: 
SZX
Summary
ICAO Region: 
APAC
Territory: 
Location: 
Bao'an, Shenzhen, Guangdong
Serving: 
Shenzhen
Elevation: 
13 ft
Coordinates: 
Aerial View: 
22° 38' 21.329" N, 113° 48' 38.39" E
Metar
Observation
ZGSZ 021800Z 02002MPS CAVOK 14/00 Q1022 NOSIG
Station
Shenzhen
Date/Time
2021-12-02 18:00:00
Wind direction
20°
Lowest cloud amount
clouds and visibility OK
Temperature
14°C
Dew point
0°C
Humidity
38%
QNH
1022 hPa
Weather condition
n/a

Description

Shenzhen Bao'an International Airport is located in the Bao'an District, Shenzhen, Guangdong, China. It is 32 km northwest of the city center.

Climatology

Within the Köppen Climate Classification System, ((Koppen climate classification Cwa)) this climate type generally has warm and humid summers with mild winters. Its extent is from 30 to 50° of latitude mainly on the eastern and western borders of most continents. During the winter, the main weather feature is the mid-latitude cyclone. Convective thunderstorms provide precipitation in the summer months.

Runways

Designator Length Width Surface Rops
15/33 3400 45 CON Yes/Yes
Airport map: 
Aerial View: 

SKYbrary Partners:

Safety knowledge contributed by: